Taurus, New Jersey
Current Conditions -  °F | °C
As of 7:51 PM on Friday 19 Dec 2014 (Local Time) from KNYC Reporting Station
Broken Clouds Broken Clouds  
Wind Chill: 25°   Ceiling: 3400
Heat Index: 32°   Visibility: 10mi
Dew Point: 19°   Wind: 8mph
Humidity: 59%   Direction: 310°NW
Pressure: 30.17"   Gusts: 17mph
Location:  40.7879°N, 74.0112°W
Report Text: KNYC 200051Z AUTO 31007G15KT 10SM BKN034 00/M07 A3017 RMK AO2 SLP211 T00001072 $
Loading
Personal Weather Stations






























Interactive Weather Map New forecast layout! Learn more

10-Day Weather Forecast

Advertisements
Track Severe Weather on mobile